Time;durP1;ratioP1;P1;durP2;ratioP2;P2;SDS_P1;SDS_P2;PMS_P1;PMS_P2;Temp;Humidity;BMP_temperature;BMP_pressure;BME280_temperature;BME280_humidity;BME280_pressure;Samples;Min_cycle;Max_cycle;Signal;HPM_P1;HPM_P2
2023/12/11 00:01:17;;;;;;;;;;;8.70;99.90;;;;;;5118990;27;20394;-30
2023/12/11 00:03:44;;;;;;;;;;;8.70;99.90;;;;;;5126461;27;19938;-31
2023/12/11 00:06:11;;;;;;;;;;;8.70;99.90;;;;;;5133825;27;19952;-31
2023/12/11 00:08:37;;;;;;;;;;;8.70;99.90;;;;;;5127845;27;21704;-31
2023/12/11 00:11:04;;;;;;;;;;;8.70;99.90;;;;;;5117584;27;19931;-32
2023/12/11 00:13:32;;;;;;;;;;;8.70;99.90;;;;;;5113735;27;20439;-31
2023/12/11 00:15:59;;;;;;;;;;;8.70;99.90;;;;;;5127406;27;19960;-31
2023/12/11 00:18:26;;;;;;;;;;;8.70;99.90;;;;;;5106487;27;19941;-31
2023/12/11 00:20:52;;;;;;;;;;;8.70;99.90;;;;;;5114776;27;19950;-31
2023/12/11 00:23:19;;;;;;;;;;;8.70;99.90;;;;;;5126126;27;19934;-32
2023/12/11 00:25:46;;;;;;;;;;;8.70;99.90;;;;;;5130735;27;20381;-33
2023/12/11 00:28:13;;;;;;;;;;;8.70;99.90;;;;;;5126559;27;19943;-31
2023/12/11 00:30:41;;;;;;;;;;;8.70;99.90;;;;;;5105566;27;19938;-31
2023/12/11 00:33:08;;;;;;;;;;;8.70;99.90;;;;;;5103469;27;19981;-31
2023/12/11 00:35:35;;;;;;;;;;;8.70;99.90;;;;;;5128398;27;19953;-31
2023/12/11 00:38:01;;;;;;;;;;;8.70;99.90;;;;;;5116466;27;19945;-30
2023/12/11 00:40:28;;;;;;;;;;;8.60;99.90;;;;;;5112031;27;19942;-32
2023/12/11 00:42:55;;;;;;;;;;;8.60;99.90;;;;;;5104679;27;19944;-32
2023/12/11 00:45:22;;;;;;;;;;;8.60;99.90;;;;;;5115286;27;20387;-32
2023/12/11 00:47:50;;;;;;;;;;;8.60;99.90;;;;;;5113413;27;19949;-31
2023/12/11 00:50:16;;;;;;;;;;;8.70;99.90;;;;;;5131415;27;20378;-30
2023/12/11 00:52:43;;;;;;;;;;;8.70;99.90;;;;;;5114827;27;19961;-30
2023/12/11 00:55:10;;;;;;;;;;;8.70;99.90;;;;;;5109947;27;19936;-31
2023/12/11 00:57:37;;;;;;;;;;;8.70;99.90;;;;;;5125921;27;19936;-31
2023/12/11 01:00:04;;;;;;;;;;;8.70;99.90;;;;;;5104856;27;19947;-31
2023/12/11 01:02:31;;;;;;;;;;;8.70;99.90;;;;;;5116399;27;19937;-31
2023/12/11 01:04:59;;;;;;;;;;;8.70;99.90;;;;;;5134409;27;19951;-32
2023/12/11 01:07:25;;;;;;;;;;;8.80;99.90;;;;;;5120816;27;19937;-31
2023/12/11 01:09:52;;;;;;;;;;;8.70;99.90;;;;;;5111079;27;19953;-31
2023/12/11 01:12:19;;;;;;;;;;;8.70;99.90;;;;;;5112201;27;20395;-31
2023/12/11 01:14:45;;;;;;;;;;;8.80;99.90;;;;;;5115410;27;20379;-32
2023/12/11 01:17:12;;;;;;;;;;;8.70;99.90;;;;;;5103578;27;19945;-31
2023/12/11 01:19:41;;;;;;;;;;;8.70;99.90;;;;;;5128250;27;20393;-31
2023/12/11 01:22:09;;;;;;;;;;;8.70;99.90;;;;;;5123927;27;20034;-30
2023/12/11 01:24:36;;;;;;;;;;;8.80;99.90;;;;;;5133726;27;19941;-32
2023/12/11 01:27:03;;;;;;;;;;;8.80;99.90;;;;;;5111363;27;19945;-32
2023/12/11 01:29:30;;;;;;;;;;;8.70;99.90;;;;;;5131553;27;19983;-30
2023/12/11 01:31:57;;;;;;;;;;;8.80;99.90;;;;;;5131802;27;19978;-31
2023/12/11 01:34:23;;;;;;;;;;;8.80;99.90;;;;;;5133658;27;20455;-30
2023/12/11 01:36:50;;;;;;;;;;;8.80;99.90;;;;;;5134041;27;19937;-31
2023/12/11 01:39:18;;;;;;;;;;;8.80;99.90;;;;;;5134017;27;19939;-31
2023/12/11 01:41:45;;;;;;;;;;;8.80;99.90;;;;;;5111681;27;19944;-31
2023/12/11 01:44:12;;;;;;;;;;;8.80;99.90;;;;;;5126275;27;19936;-31
2023/12/11 01:46:38;;;;;;;;;;;8.70;99.90;;;;;;5110320;27;19938;-31
2023/12/11 01:49:05;;;;;;;;;;;8.80;99.90;;;;;;5132922;27;19958;-30
2023/12/11 01:51:32;;;;;;;;;;;8.70;99.90;;;;;;5127096;27;20414;-31
2023/12/11 01:53:59;;;;;;;;;;;8.70;99.90;;;;;;5115999;27;19944;-30
2023/12/11 01:56:27;;;;;;;;;;;8.70;99.90;;;;;;5112171;27;19952;-31
2023/12/11 01:58:53;;;;;;;;;;;8.80;99.90;;;;;;5134019;27;19939;-31
2023/12/11 02:01:21;;;;;;;;;;;8.80;99.90;;;;;;5115709;27;19945;-32
2023/12/11 02:03:47;;;;;;;;;;;8.70;99.90;;;;;;5123735;27;19945;-31
2023/12/11 02:06:14;;;;;;;;;;;8.70;99.90;;;;;;5097300;28;19940;-30
2023/12/11 02:08:41;;;;;;;;;;;8.70;99.90;;;;;;5122670;27;19942;-31
2023/12/11 02:11:08;;;;;;;;;;;8.70;99.90;;;;;;5114878;27;20403;-31
2023/12/11 02:13:36;;;;;;;;;;;8.70;99.90;;;;;;5133513;27;19964;-32
2023/12/11 02:16:03;;;;;;;;;;;8.70;99.90;;;;;;5130082;27;19935;-32
2023/12/11 02:18:30;;;;;;;;;;;8.70;99.90;;;;;;5132514;27;19944;-32
2023/12/11 02:20:56;;;;;;;;;;;8.80;99.90;;;;;;5128080;27;20366;-30
2023/12/11 02:23:24;;;;;;;;;;;8.70;99.90;;;;;;5132159;27;19946;-31
2023/12/11 02:25:55;;;;;;;;;;;8.70;99.90;;;;;;5133266;27;20319;-31
2023/12/11 02:28:23;;;;;;;;;;;8.70;99.90;;;;;;5109776;27;19936;-31
2023/12/11 02:30:50;;;;;;;;;;;8.80;99.90;;;;;;5114692;27;19941;-32
2023/12/11 02:33:17;;;;;;;;;;;8.70;99.90;;;;;;5114029;27;19940;-31
2023/12/11 02:35:44;;;;;;;;;;;8.80;99.90;;;;;;5108207;27;19943;-32
2023/12/11 02:38:10;;;;;;;;;;;8.70;99.90;;;;;;5131656;27;20396;-30
2023/12/11 02:40:37;;;;;;;;;;;8.80;99.90;;;;;;5132971;27;19941;-31
2023/12/11 02:43:04;;;;;;;;;;;8.80;99.90;;;;;;5112651;27;19945;-31
2023/12/11 02:45:32;;;;;;;;;;;8.80;99.90;;;;;;5110221;27;19958;-32
2023/12/11 02:48:02;;;;;;;;;;;8.80;99.90;;;;;;5114141;27;19941;-31
2023/12/11 02:50:29;;;;;;;;;;;8.90;99.90;;;;;;5112526;27;19957;-31
2023/12/11 02:52:56;;;;;;;;;;;8.90;99.90;;;;;;5124536;27;19959;-31
2023/12/11 02:55:23;;;;;;;;;;;8.90;99.90;;;;;;5102579;27;19934;-31
2023/12/11 02:57:49;;;;;;;;;;;8.90;99.90;;;;;;5130682;27;19924;-31
2023/12/11 03:00:16;;;;;;;;;;;8.90;99.90;;;;;;5121187;27;20369;-31
2023/12/11 03:02:44;;;;;;;;;;;8.90;99.90;;;;;;5112205;28;19940;-31
2023/12/11 03:05:11;;;;;;;;;;;9.00;99.90;;;;;;5114153;28;20407;-32
2023/12/11 03:07:38;;;;;;;;;;;8.90;99.90;;;;;;5119559;28;19937;-31
2023/12/11 03:10:05;;;;;;;;;;;9.00;99.90;;;;;;5133198;28;19940;-31
2023/12/11 03:12:31;;;;;;;;;;;9.00;99.90;;;;;;5113414;28;19960;-32
2023/12/11 03:14:58;;;;;;;;;;;9.00;99.90;;;;;;5113895;28;19945;-31
2023/12/11 03:17:25;;;;;;;;;;;9.00;99.90;;;;;;5116904;27;20340;-32
2023/12/11 03:19:53;;;;;;;;;;;9.00;99.90;;;;;;5110046;28;19944;-31
2023/12/11 03:22:20;;;;;;;;;;;9.00;99.90;;;;;;5114609;28;19940;-32
2023/12/11 03:24:47;;;;;;;;;;;9.00;99.90;;;;;;5114351;28;19949;-32
2023/12/11 03:27:14;;;;;;;;;;;9.00;99.90;;;;;;5132186;28;19947;-32
2023/12/11 03:29:41;;;;;;;;;;;9.00;99.90;;;;;;5114275;28;19940;-32
2023/12/11 03:32:08;;;;;;;;;;;9.00;99.90;;;;;;5132966;28;20316;-31
2023/12/11 03:34:35;;;;;;;;;;;9.00;99.90;;;;;;5122213;28;20412;-32
2023/12/11 03:37:03;;;;;;;;;;;9.10;99.90;;;;;;5107027;28;19945;-32
2023/12/11 03:39:30;;;;;;;;;;;9.10;99.90;;;;;;5112922;28;19990;-32
2023/12/11 03:41:57;;;;;;;;;;;9.10;99.90;;;;;;5096442;28;19943;-32
2023/12/11 03:44:24;;;;;;;;;;;9.10;99.90;;;;;;5108406;28;19996;-31
2023/12/11 03:46:50;;;;;;;;;;;9.10;99.90;;;;;;5113784;28;19987;-32
2023/12/11 03:49:18;;;;;;;;;;;9.10;99.90;;;;;;5130727;28;19928;-32
2023/12/11 03:51:45;;;;;;;;;;;9.10;99.90;;;;;;5114234;28;19937;-31
2023/12/11 03:54:13;;;;;;;;;;;9.10;99.90;;;;;;5114061;28;20304;-32
2023/12/11 03:56:40;;;;;;;;;;;9.10;99.90;;;;;;5132124;28;19946;-32
2023/12/11 03:59:06;;;;;;;;;;;9.10;99.90;;;;;;5113594;28;19941;-32
2023/12/11 04:01:33;;;;;;;;;;;9.10;99.90;;;;;;5131445;28;19936;-32
2023/12/11 04:04:00;;;;;;;;;;;9.10;99.90;;;;;;5113486;28;19942;-31
2023/12/11 04:06:27;;;;;;;;;;;9.10;99.90;;;;;;5117010;28;19945;-31
2023/12/11 04:08:53;;;;;;;;;;;9.10;99.90;;;;;;5117278;28;20391;-31
2023/12/11 04:11:21;;;;;;;;;;;9.10;99.90;;;;;;5113799;28;19941;-32
2023/12/11 04:13:48;;;;;;;;;;;9.10;99.90;;;;;;5131467;27;20193;-31
2023/12/11 04:16:15;;;;;;;;;;;9.10;99.90;;;;;;5115676;27;19955;-32
2023/12/11 04:18:42;;;;;;;;;;;9.10;99.90;;;;;;5117615;27;19937;-32
2023/12/11 04:21:09;;;;;;;;;;;9.10;99.90;;;;;;5113922;27;19941;-31
2023/12/11 04:23:36;;;;;;;;;;;9.10;99.90;;;;;;5110622;27;20416;-31
2023/12/11 04:26:02;;;;;;;;;;;9.10;99.90;;;;;;5110515;27;20060;-31
2023/12/11 04:28:30;;;;;;;;;;;9.10;99.90;;;;;;5116651;27;19941;-31
2023/12/11 04:30:57;;;;;;;;;;;9.10;99.90;;;;;;5131546;27;19951;-32
2023/12/11 04:33:24;;;;;;;;;;;9.10;99.90;;;;;;5134826;27;19958;-32
2023/12/11 04:35:51;;;;;;;;;;;9.10;99.90;;;;;;5103304;27;19977;-31
2023/12/11 04:38:17;;;;;;;;;;;9.10;99.90;;;;;;5119845;27;19943;-31
2023/12/11 04:40:44;;;;;;;;;;;9.10;99.90;;;;;;5132158;27;19946;-32
2023/12/11 04:43:11;;;;;;;;;;;9.10;99.90;;;;;;5114714;27;20282;-32
2023/12/11 04:45:39;;;;;;;;;;;9.10;99.90;;;;;;5126172;27;19946;-32
2023/12/11 04:48:06;;;;;;;;;;;9.10;99.90;;;;;;5116580;27;19940;-31
2023/12/11 04:50:32;;;;;;;;;;;9.10;99.90;;;;;;5132026;27;20338;-31
2023/12/11 04:52:59;;;;;;;;;;;9.10;99.90;;;;;;5115459;27;20026;-32
2023/12/11 04:55:27;;;;;;;;;;;9.10;99.90;;;;;;5114737;27;19936;-32
2023/12/11 04:57:53;;;;;;;;;;;9.00;99.90;;;;;;5134150;27;20303;-32
2023/12/11 05:00:20;;;;;;;;;;;9.00;99.90;;;;;;5116979;27;20321;-31
2023/12/11 05:02:48;;;;;;;;;;;9.00;99.90;;;;;;5120481;27;19947;-31
2023/12/11 05:05:16;;;;;;;;;;;9.00;99.90;;;;;;5116291;27;19942;-31
2023/12/11 05:07:43;;;;;;;;;;;9.00;99.90;;;;;;5113833;27;19977;-31
2023/12/11 05:10:10;;;;;;;;;;;9.00;99.90;;;;;;5133647;27;19942;-32
2023/12/11 05:12:36;;;;;;;;;;;9.00;99.90;;;;;;5132119;27;19959;-31
2023/12/11 05:15:03;;;;;;;;;;;9.00;99.90;;;;;;5112113;27;19934;-32
2023/12/11 05:17:30;;;;;;;;;;;9.00;99.90;;;;;;5120756;27;19940;-32
2023/12/11 05:19:58;;;;;;;;;;;9.00;99.90;;;;;;5115871;27;19941;-33
2023/12/11 05:22:25;;;;;;;;;;;9.00;99.90;;;;;;5103115;28;19935;-32
2023/12/11 05:24:51;;;;;;;;;;;8.90;99.90;;;;;;5126082;27;19938;-31
2023/12/11 05:27:18;;;;;;;;;;;8.90;99.90;;;;;;5113120;27;20392;-31
2023/12/11 05:29:45;;;;;;;;;;;9.00;99.90;;;;;;5125597;27;20280;-32
2023/12/11 05:32:13;;;;;;;;;;;8.90;99.90;;;;;;5115083;27;19944;-31
2023/12/11 05:34:40;;;;;;;;;;;8.90;99.90;;;;;;5132125;27;19985;-31
2023/12/11 05:37:08;;;;;;;;;;;8.90;99.90;;;;;;5115435;27;19980;-31
2023/12/11 05:39:35;;;;;;;;;;;8.90;99.90;;;;;;5115346;27;20397;-31
2023/12/11 05:42:01;;;;;;;;;;;8.90;99.90;;;;;;5130940;27;19947;-32
2023/12/11 05:44:28;;;;;;;;;;;8.90;99.90;;;;;;5115125;27;19942;-31
2023/12/11 05:46:55;;;;;;;;;;;8.90;99.90;;;;;;5127794;27;19940;-30
2023/12/11 05:49:21;;;;;;;;;;;9.00;99.90;;;;;;5106045;27;19975;-31
2023/12/11 05:51:48;;;;;;;;;;;9.00;99.90;;;;;;5132863;27;20135;-31
2023/12/11 05:54:16;;;;;;;;;;;9.00;99.90;;;;;;5114011;27;19955;-31
2023/12/11 05:56:43;;;;;;;;;;;9.00;99.90;;;;;;5100082;27;19943;-32
2023/12/11 05:59:10;;;;;;;;;;;9.00;99.90;;;;;;5110658;27;19934;-31
2023/12/11 06:01:37;;;;;;;;;;;9.00;99.90;;;;;;5127214;27;19941;-32
2023/12/11 06:04:04;;;;;;;;;;;9.00;99.90;;;;;;5113959;27;19939;-30
2023/12/11 06:06:31;;;;;;;;;;;9.00;99.90;;;;;;5114739;27;20395;-29
2023/12/11 06:08:57;;;;;;;;;;;9.00;99.90;;;;;;5125847;27;19938;-31
2023/12/11 06:11:25;;;;;;;;;;;9.00;99.90;;;;;;5128256;27;19938;-31
2023/12/11 06:13:52;;;;;;;;;;;9.00;99.90;;;;;;5114453;27;19968;-31
2023/12/11 06:16:20;;;;;;;;;;;9.00;99.90;;;;;;5114466;27;21091;-31
2023/12/11 06:18:47;;;;;;;;;;;9.00;99.90;;;;;;5116005;27;19938;-33
2023/12/11 06:21:20;;;;;;;;;;;9.00;99.90;;;;;;5125321;27;20339;-31
2023/12/11 06:23:46;;;;;;;;;;;9.10;99.90;;;;;;5109995;27;19946;-31
2023/12/11 06:26:27;;;;;;;;;;;9.10;99.90;;;;;;5112242;27;19990;-30
2023/12/11 06:28:54;;;;;;;;;;;9.10;99.90;;;;;;5129385;27;19960;-31
2023/12/11 06:31:21;;;;;;;;;;;9.10;99.90;;;;;;5132830;27;19930;-31
2023/12/11 06:33:47;;;;;;;;;;;9.00;99.90;;;;;;5111462;27;20016;-31
2023/12/11 06:36:14;;;;;;;;;;;9.10;99.90;;;;;;5109920;27;19935;-32
2023/12/11 06:38:41;;;;;;;;;;;9.10;99.90;;;;;;5113492;27;19934;-31
2023/12/11 06:41:07;;;;;;;;;;;9.10;99.90;;;;;;5122422;27;19934;-32
2023/12/11 06:43:36;;;;;;;;;;;9.10;99.90;;;;;;5126376;27;19939;-32
2023/12/11 06:46:03;;;;;;;;;;;9.10;99.90;;;;;;5114521;27;19992;-32
2023/12/11 06:48:30;;;;;;;;;;;9.10;99.90;;;;;;5113353;27;19940;-31
2023/12/11 06:50:57;;;;;;;;;;;9.10;99.90;;;;;;5132156;27;19942;-31
2023/12/11 06:53:23;;;;;;;;;;;9.10;99.90;;;;;;5124785;27;20395;-31
2023/12/11 06:55:50;;;;;;;;;;;9.10;99.90;;;;;;5094655;28;19945;-31
2023/12/11 06:58:17;;;;;;;;;;;9.20;99.90;;;;;;5094711;28;19944;-32
2023/12/11 07:00:45;;;;;;;;;;;9.10;99.90;;;;;;5094507;28;19949;-31
2023/12/11 07:03:12;;;;;;;;;;;9.20;99.90;;;;;;5114099;28;19941;-31
2023/12/11 07:05:39;;;;;;;;;;;9.20;99.90;;;;;;5133426;27;19956;-31
2023/12/11 07:08:05;;;;;;;;;;;9.20;99.90;;;;;;5133121;28;19947;-31
2023/12/11 07:10:32;;;;;;;;;;;9.10;99.90;;;;;;5132164;28;19938;-32
2023/12/11 07:12:59;;;;;;;;;;;9.10;99.90;;;;;;5116746;28;20356;-32
2023/12/11 07:15:25;;;;;;;;;;;9.10;99.90;;;;;;5094566;28;19938;-32
2023/12/11 07:17:53;;;;;;;;;;;9.10;99.90;;;;;;5094834;28;19944;-31
2023/12/11 07:20:20;;;;;;;;;;;9.10;99.90;;;;;;5094845;28;20286;-31
2023/12/11 07:22:47;;;;;;;;;;;9.10;99.90;;;;;;5112517;28;19944;-32
2023/12/11 07:25:14;;;;;;;;;;;9.10;99.90;;;;;;5094286;28;19938;-31
2023/12/11 07:27:42;;;;;;;;;;;9.10;99.90;;;;;;5095536;28;20300;-32
2023/12/11 07:30:09;;;;;;;;;;;9.10;99.90;;;;;;5133089;28;19946;-32
2023/12/11 07:32:36;;;;;;;;;;;9.10;99.90;;;;;;5132998;28;20294;-31
2023/12/11 07:35:06;;;;;;;;;;;9.00;99.90;;;;;;5114521;28;19960;-31
2023/12/11 07:37:33;;;;;;;;;;;9.00;99.90;;;;;;5133118;28;19946;-32
2023/12/11 07:40:00;;;;;;;;;;;9.00;99.90;;;;;;5132858;28;19950;-32
2023/12/11 07:42:26;;;;;;;;;;;9.00;99.90;;;;;;5114972;28;19962;-32
2023/12/11 07:44:53;;;;;;;;;;;9.00;99.90;;;;;;5107741;28;19948;-32
2023/12/11 07:47:20;;;;;;;;;;;9.00;99.90;;;;;;5112304;28;19949;-31
2023/12/11 07:49:47;;;;;;;;;;;9.00;99.90;;;;;;5095007;28;19938;-32
2023/12/11 07:52:15;;;;;;;;;;;9.00;99.90;;;;;;5116132;28;20254;-32
2023/12/11 07:54:42;;;;;;;;;;;9.00;99.90;;;;;;5133649;27;20044;-30
2023/12/11 07:57:08;;;;;;;;;;;9.00;99.90;;;;;;5118356;27;19938;-32
2023/12/11 07:59:35;;;;;;;;;;;9.00;99.90;;;;;;5136883;27;20023;-32
2023/12/11 08:02:02;;;;;;;;;;;9.00;99.90;;;;;;5118686;27;19937;-32
2023/12/11 08:04:29;;;;;;;;;;;9.00;99.90;;;;;;5102250;28;19967;-32
2023/12/11 08:06:56;;;;;;;;;;;9.00;99.90;;;;;;5132472;27;19939;-32
2023/12/11 08:09:24;;;;;;;;;;;9.00;99.90;;;;;;5135515;27;20025;-32
2023/12/11 08:11:50;;;;;;;;;;;9.00;99.90;;;;;;5135169;27;19951;-32
2023/12/11 08:14:17;;;;;;;;;;;9.00;99.90;;;;;;5135445;27;19964;-32
2023/12/11 08:16:44;;;;;;;;;;;9.00;99.90;;;;;;5135242;27;19963;-31
2023/12/11 08:19:12;;;;;;;;;;;9.00;99.90;;;;;;5135448;27;20414;-31
2023/12/11 08:21:38;;;;;;;;;;;9.00;99.90;;;;;;5128066;27;20381;-32
2023/12/11 08:24:05;;;;;;;;;;;9.00;99.90;;;;;;5134471;27;19947;-31
2023/12/11 08:26:34;;;;;;;;;;;9.00;99.90;;;;;;5135962;27;20348;-32
2023/12/11 08:29:00;;;;;;;;;;;9.00;99.90;;;;;;5117998;27;19939;-32
2023/12/11 08:31:27;;;;;;;;;;;9.00;99.90;;;;;;5136207;27;20011;-32
2023/12/11 08:33:54;;;;;;;;;;;9.00;99.90;;;;;;5115889;27;19956;-31
2023/12/11 08:36:21;;;;;;;;;;;9.00;99.90;;;;;;5136525;27;20339;-31
2023/12/11 08:38:48;;;;;;;;;;;9.00;99.90;;;;;;5135834;27;20412;-31
2023/12/11 08:41:15;;;;;;;;;;;9.00;99.90;;;;;;5117695;27;19938;-32
2023/12/11 08:43:44;;;;;;;;;;;9.00;99.90;;;;;;5136035;27;20424;-31
2023/12/11 08:46:10;;;;;;;;;;;9.00;99.90;;;;;;5116333;27;19945;-32
2023/12/11 08:48:37;;;;;;;;;;;9.00;99.90;;;;;;5115741;27;19936;-32
2023/12/11 08:51:04;;;;;;;;;;;9.00;99.90;;;;;;5135696;27;20369;-32
2023/12/11 08:53:31;;;;;;;;;;;9.00;99.90;;;;;;5135353;27;20402;-32
2023/12/11 08:55:57;;;;;;;;;;;9.00;99.90;;;;;;5135316;27;19938;-32
2023/12/11 08:58:24;;;;;;;;;;;9.00;99.90;;;;;;5117531;27;19946;-32
2023/12/11 09:00:53;;;;;;;;;;;9.00;99.90;;;;;;5135294;27;19942;-32
2023/12/11 09:03:20;;;;;;;;;;;9.00;99.90;;;;;;5134830;27;19951;-32
2023/12/11 09:05:47;;;;;;;;;;;9.10;99.90;;;;;;5135448;27;19960;-32
2023/12/11 09:08:14;;;;;;;;;;;9.10;99.90;;;;;;5117428;27;20049;-31
2023/12/11 09:10:41;;;;;;;;;;;9.10;99.90;;;;;;5117079;27;19945;-31
2023/12/11 09:13:08;;;;;;;;;;;9.10;99.90;;;;;;5116880;27;19960;-32
2023/12/11 09:15:35;;;;;;;;;;;9.10;99.90;;;;;;5135277;27;19963;-31
2023/12/11 09:18:03;;;;;;;;;;;9.10;99.90;;;;;;5117129;27;19945;-31
2023/12/11 09:20:30;;;;;;;;;;;9.20;99.90;;;;;;5116744;27;20313;-32
2023/12/11 09:22:56;;;;;;;;;;;9.20;99.90;;;;;;5115285;27;20301;-30
2023/12/11 09:25:23;;;;;;;;;;;9.20;99.90;;;;;;5134837;27;19943;-31
2023/12/11 09:27:50;;;;;;;;;;;9.20;99.90;;;;;;5134969;27;19943;-32
2023/12/11 09:30:16;;;;;;;;;;;9.30;99.90;;;;;;5135140;27;20358;-31
2023/12/11 09:32:44;;;;;;;;;;;9.30;99.90;;;;;;5134929;27;19941;-31
2023/12/11 09:35:13;;;;;;;;;;;9.30;99.90;;;;;;5134851;27;19967;-32
2023/12/11 09:37:41;;;;;;;;;;;9.40;99.90;;;;;;5116153;27;20362;-31
2023/12/11 09:40:10;;;;;;;;;;;9.40;99.90;;;;;;5118460;27;19945;-31
2023/12/11 09:42:38;;;;;;;;;;;9.40;99.90;;;;;;5096257;28;19943;-32
2023/12/11 09:45:05;;;;;;;;;;;9.40;99.90;;;;;;5096178;28;20010;-30
2023/12/11 09:47:32;;;;;;;;;;;9.40;99.90;;;;;;5095991;28;19945;-30
2023/12/11 09:49:59;;;;;;;;;;;9.50;99.90;;;;;;5108114;27;19944;-32
2023/12/11 09:52:27;;;;;;;;;;;9.50;99.90;;;;;;5116239;27;19951;-31
2023/12/11 09:54:54;;;;;;;;;;;9.40;99.90;;;;;;5115919;27;20042;-32
2023/12/11 09:57:21;;;;;;;;;;;9.40;99.90;;;;;;5116440;27;19945;-32
2023/12/11 09:59:48;;;;;;;;;;;9.40;99.90;;;;;;5116176;27;19952;-32
2023/12/11 10:02:15;;;;;;;;;;;9.40;99.90;;;;;;5116229;27;19938;-32
2023/12/11 10:04:57;;;;;;;;;;;9.40;99.90;;;;;;5095991;28;19940;-32
2023/12/11 10:07:23;;;;;;;;;;;9.40;99.90;;;;;;5113062;28;20386;-32
2023/12/11 10:09:51;;;;;;;;;;;9.40;99.90;;;;;;5095685;28;20426;-32
2023/12/11 10:12:18;;;;;;;;;;;9.50;99.90;;;;;;5107077;28;19967;-31
2023/12/11 10:14:47;;;;;;;;;;;9.50;99.90;;;;;;5133824;27;19959;-31
2023/12/11 10:17:16;;;;;;;;;;;9.50;99.90;;;;;;5133946;27;19939;-32
2023/12/11 10:19:43;;;;;;;;;;;9.60;99.90;;;;;;5115427;27;19952;-31
2023/12/11 10:22:11;;;;;;;;;;;9.60;99.90;;;;;;5133709;27;19949;-31
2023/12/11 10:24:42;;;;;;;;;;;9.60;99.90;;;;;;5115770;27;19946;-31
2023/12/11 10:27:10;;;;;;;;;;;9.60;99.90;;;;;;5133589;27;19946;-31
2023/12/11 10:29:37;;;;;;;;;;;9.60;99.90;;;;;;5113458;27;19935;-31
2023/12/11 10:32:04;;;;;;;;;;;9.60;99.90;;;;;;5113000;28;20394;-31
2023/12/11 10:34:41;;;;;;;;;;;9.60;99.90;;;;;;5112934;28;19972;-31
2023/12/11 10:37:08;;;;;;;;;;;9.60;99.90;;;;;;5113294;28;19940;-31
2023/12/11 10:39:35;;;;;;;;;;;9.60;99.90;;;;;;5113059;28;20029;-31
2023/12/11 10:42:14;;;;;;;;;;;9.60;99.90;;;;;;5112889;28;20394;-31
2023/12/11 10:44:41;;;;;;;;;;;9.60;99.90;;;;;;5122504;27;19990;-31
2023/12/11 10:47:07;;;;;;;;;;;9.60;99.90;;;;;;5133414;27;19945;-32
2023/12/11 10:49:34;;;;;;;;;;;9.60;99.90;;;;;;5115549;27;19968;-31
2023/12/11 10:52:02;;;;;;;;;;;9.60;99.90;;;;;;5115094;28;19940;-32
2023/12/11 10:54:29;;;;;;;;;;;9.60;99.90;;;;;;5114379;28;19962;-32
2023/12/11 10:56:56;;;;;;;;;;;9.60;99.90;;;;;;5114978;27;19939;-32
2023/12/11 10:59:24;;;;;;;;;;;9.60;99.90;;;;;;5115389;27;19941;-32
2023/12/11 11:01:51;;;;;;;;;;;9.60;99.90;;;;;;5133255;27;19988;-32
2023/12/11 11:04:17;;;;;;;;;;;9.50;99.90;;;;;;5115195;28;19938;-32
2023/12/11 11:06:52;;;;;;;;;;;9.50;99.90;;;;;;5115111;27;20333;-31
2023/12/11 11:09:20;;;;;;;;;;;9.50;99.90;;;;;;5099171;28;19942;-31
2023/12/11 11:11:48;;;;;;;;;;;9.40;99.90;;;;;;5094949;28;19942;-31
2023/12/11 11:14:28;;;;;;;;;;;9.50;99.90;;;;;;5094594;28;19938;-31
2023/12/11 11:16:56;;;;;;;;;;;9.50;99.90;;;;;;5094751;28;19944;-31
2023/12/11 11:19:24;;;;;;;;;;;9.60;99.90;;;;;;5112747;28;19938;-31
2023/12/11 11:22:04;;;;;;;;;;;9.50;99.90;;;;;;5094380;28;19944;-32
2023/12/11 11:24:31;;;;;;;;;;;9.50;99.90;;;;;;5121753;27;19941;-32
2023/12/11 11:26:57;;;;;;;;;;;9.50;99.90;;;;;;5118830;27;19938;-32
2023/12/11 11:29:37;;;;;;;;;;;9.50;99.90;;;;;;5117241;27;20386;-31
2023/12/11 11:32:05;;;;;;;;;;;9.50;99.90;;;;;;5119457;27;19937;-31
2023/12/11 11:34:44;;;;;;;;;;;9.50;99.90;;;;;;5118579;27;20030;-32
2023/12/11 11:37:13;;;;;;;;;;;9.50;99.90;;;;;;5119071;27;19986;-32
2023/12/11 11:39:54;;;;;;;;;;;9.50;99.90;;;;;;5118989;27;19994;-31
2023/12/11 11:42:21;;;;;;;;;;;9.50;99.90;;;;;;5136924;27;20033;-32
2023/12/11 11:44:48;;;;;;;;;;;9.50;99.90;;;;;;5114493;28;20314;-32
2023/12/11 11:47:18;;;;;;;;;;;9.40;99.90;;;;;;5098071;28;20450;-32
2023/12/11 11:49:45;;;;;;;;;;;9.40;99.90;;;;;;5098009;28;19994;-31
2023/12/11 11:52:12;;;;;;;;;;;9.40;99.90;;;;;;5116231;28;20420;-31
2023/12/11 11:54:39;;;;;;;;;;;9.40;99.90;;;;;;5115387;27;19959;-32
2023/12/11 11:57:06;;;;;;;;;;;9.40;99.90;;;;;;5118752;27;19937;-32
2023/12/11 11:59:32;;;;;;;;;;;9.40;99.90;;;;;;5136939;27;19936;-31
2023/12/11 12:01:59;;;;;;;;;;;9.40;99.90;;;;;;5117908;27;19988;-32
2023/12/11 12:04:27;;;;;;;;;;;9.30;99.90;;;;;;5097905;28;19935;-32
2023/12/11 12:06:55;;;;;;;;;;;9.30;99.90;;;;;;5097747;28;19939;-31
2023/12/11 12:09:21;;;;;;;;;;;9.40;99.90;;;;;;5098194;28;19945;-32
2023/12/11 12:11:48;;;;;;;;;;;9.30;99.90;;;;;;5115695;28;20388;-31
2023/12/11 12:14:15;;;;;;;;;;;9.30;99.90;;;;;;5113783;27;19957;-32
2023/12/11 12:16:44;;;;;;;;;;;9.30;99.90;;;;;;5135637;27;21499;-32
2023/12/11 12:19:10;;;;;;;;;;;9.30;99.90;;;;;;5134715;27;19988;-32
2023/12/11 12:21:48;;;;;;;;;;;9.30;99.90;;;;;;5111017;27;19934;-31
2023/12/11 12:24:15;;;;;;;;;;;9.30;99.90;;;;;;5114894;28;20397;-33
2023/12/11 12:26:42;;;;;;;;;;;9.30;99.90;;;;;;5104505;27;19934;-32
2023/12/11 12:29:09;;;;;;;;;;;9.40;99.90;;;;;;5136002;27;19963;-31
2023/12/11 12:31:36;;;;;;;;;;;9.40;99.90;;;;;;5136075;27;19944;-32
2023/12/11 12:34:03;;;;;;;;;;;9.40;99.90;;;;;;5117749;27;19942;-32
2023/12/11 12:36:30;;;;;;;;;;;9.50;99.90;;;;;;5116593;27;20351;-32
2023/12/11 12:38:58;;;;;;;;;;;9.50;99.90;;;;;;5117734;27;19945;-32
2023/12/11 12:41:24;;;;;;;;;;;9.50;99.90;;;;;;5117896;27;19940;-31
2023/12/11 12:43:51;;;;;;;;;;;9.50;99.90;;;;;;5117724;27;19985;-32
2023/12/11 12:46:18;;;;;;;;;;;9.50;99.90;;;;;;5117564;27;19986;-33
2023/12/11 12:48:44;;;;;;;;;;;9.40;99.90;;;;;;5117693;27;20014;-32
2023/12/11 12:51:11;;;;;;;;;;;9.40;99.90;;;;;;5135481;27;19995;-32
2023/12/11 12:53:45;;;;;;;;;;;9.30;99.90;;;;;;5131413;27;19938;-32
2023/12/11 12:56:16;;;;;;;;;;;9.30;99.90;;;;;;5115899;27;20011;-32
2023/12/11 12:58:43;;;;;;;;;;;9.30;99.90;;;;;;5116231;27;19941;-32
2023/12/11 13:01:09;;;;;;;;;;;9.30;99.90;;;;;;5117476;27;20370;-33
2023/12/11 13:03:36;;;;;;;;;;;9.30;99.90;;;;;;5117205;27;19951;-32
2023/12/11 13:06:04;;;;;;;;;;;9.20;99.90;;;;;;5117272;27;20032;-32
2023/12/11 13:08:41;;;;;;;;;;;9.20;99.90;;;;;;5135353;27;20007;-32
2023/12/11 13:11:07;;;;;;;;;;;9.20;99.90;;;;;;5113904;27;20057;-32
2023/12/11 13:13:35;;;;;;;;;;;9.10;99.90;;;;;;5098936;27;20328;-32
2023/12/11 13:16:02;;;;;;;;;;;9.00;99.90;;;;;;5115557;27;19938;-31
2023/12/11 13:18:30;;;;;;;;;;;9.10;99.90;;;;;;5133979;27;19938;-32
2023/12/11 13:20:57;;;;;;;;;;;9.00;99.90;;;;;;5130497;27;19951;-30
2023/12/11 13:23:24;;;;;;;;;;;9.00;99.90;;;;;;5134607;27;19950;-32
2023/12/11 13:25:51;;;;;;;;;;;9.00;99.90;;;;;;5116733;27;19935;-32
2023/12/11 13:28:18;;;;;;;;;;;8.90;99.90;;;;;;5134786;27;19976;-31
2023/12/11 13:30:45;;;;;;;;;;;8.90;99.90;;;;;;5134703;27;20368;-32
2023/12/11 13:33:12;;;;;;;;;;;8.90;99.90;;;;;;5134523;27;20467;-33
2023/12/11 13:35:39;;;;;;;;;;;8.90;99.90;;;;;;5116351;27;19957;-32
2023/12/11 13:38:06;;;;;;;;;;;8.90;99.90;;;;;;5116542;27;20473;-31
2023/12/11 13:40:32;;;;;;;;;;;9.00;99.90;;;;;;5133980;27;19937;-32
2023/12/11 13:42:59;;;;;;;;;;;9.00;99.90;;;;;;5116413;27;19992;-32
2023/12/11 13:45:27;;;;;;;;;;;9.00;99.90;;;;;;5114859;27;20418;-32
2023/12/11 13:47:55;;;;;;;;;;;9.10;99.90;;;;;;5114353;27;19929;-32
2023/12/11 13:50:22;;;;;;;;;;;9.10;99.90;;;;;;5115720;27;20397;-33
2023/12/11 13:52:48;;;;;;;;;;;9.10;99.90;;;;;;5114248;27;20018;-32
2023/12/11 13:55:15;;;;;;;;;;;9.10;99.90;;;;;;5132344;27;20038;-32
2023/12/11 13:57:42;;;;;;;;;;;9.10;99.90;;;;;;5115306;27;19946;-31
2023/12/11 14:00:09;;;;;;;;;;;9.00;99.90;;;;;;5114614;27;19934;-31
2023/12/11 14:02:35;;;;;;;;;;;9.00;99.90;;;;;;5133066;27;19939;-32
2023/12/11 14:05:04;;;;;;;;;;;9.00;99.90;;;;;;5111915;27;19944;-32
2023/12/11 14:07:30;;;;;;;;;;;8.90;99.90;;;;;;5105064;28;19938;-31
2023/12/11 14:09:57;;;;;;;;;;;8.90;99.90;;;;;;5132918;27;19943;-31
2023/12/11 14:12:26;;;;;;;;;;;8.80;99.90;;;;;;5132617;27;20664;-32
2023/12/11 14:14:53;;;;;;;;;;;8.80;99.90;;;;;;5116105;27;19986;-33
2023/12/11 14:17:20;;;;;;;;;;;8.80;99.90;;;;;;5131911;27;19958;-30
2023/12/11 14:19:46;;;;;;;;;;;8.70;99.90;;;;;;5134013;27;19937;-32
2023/12/11 14:22:14;;;;;;;;;;;8.70;99.90;;;;;;5114168;27;19937;-32
2023/12/11 14:24:41;;;;;;;;;;;8.70;99.90;;;;;;5114741;27;19943;-32
2023/12/11 14:27:10;;;;;;;;;;;8.70;99.90;;;;;;5133173;27;20425;-34
2023/12/11 14:29:36;;;;;;;;;;;8.70;99.90;;;;;;5111177;27;19944;-32
2023/12/11 14:32:03;;;;;;;;;;;8.70;99.90;;;;;;5114732;27;19938;-32